createdAt,value
2022-11-18T00:01:43.321Z,1.45
2022-11-18T00:04:27.155Z,1.17
2022-11-18T00:06:54.204Z,0.98
2022-11-18T00:09:21.452Z,1.23
2022-11-18T00:12:07.388Z,0.57
2022-11-18T00:14:34.398Z,0.93
2022-11-18T00:17:06.145Z,1.25
2022-11-18T00:19:38.371Z,1.08
2022-11-18T00:22:07.280Z,1.38
2022-11-18T00:24:35.073Z,1.30
2022-11-18T00:27:02.244Z,1.48
2022-11-18T00:29:29.568Z,1.33
2022-11-18T00:31:57.490Z,0.82
2022-11-18T00:34:25.805Z,0.65
2022-11-18T00:36:52.995Z,0.88
2022-11-18T00:39:21.389Z,1.13
2022-11-18T00:42:08.250Z,1.85
2022-11-18T00:44:35.337Z,0.55
2022-11-18T00:47:02.478Z,1.50
2022-11-18T00:49:29.679Z,1.00
2022-11-18T00:51:56.885Z,1.42
2022-11-18T00:54:24.111Z,1.42
2022-11-18T00:56:51.281Z,1.17
2022-11-18T00:59:18.746Z,1.45
2022-11-18T01:01:46.197Z,0.65
2022-11-18T01:04:13.512Z,0.82
2022-11-18T01:06:41.292Z,0.85
2022-11-18T01:09:08.369Z,1.10
2022-11-18T01:11:53.970Z,0.80
2022-11-18T01:14:21.244Z,0.22
2022-11-18T01:16:51.520Z,1.23
2022-11-18T01:19:19.445Z,1.23
2022-11-18T01:21:47.161Z,0.90
2022-11-18T01:24:14.200Z,0.70
2022-11-18T01:26:41.453Z,1.47
2022-11-18T01:29:08.936Z,0.88
2022-11-18T01:31:45.508Z,0.68
2022-11-18T01:34:22.438Z,0.60
2022-11-18T01:36:49.445Z,0.82
2022-11-18T01:39:16.787Z,0.80
2022-11-18T01:41:43.903Z,0.50
2022-11-18T01:44:48.812Z,0.37
2022-11-18T01:47:15.981Z,1.33
2022-11-18T01:49:46.572Z,0.50
2022-11-18T01:52:15.169Z,1.35
2022-11-18T01:54:48.545Z,0.68
2022-11-18T01:57:20.466Z,1.02
2022-11-18T01:59:50.917Z,1.23
2022-11-18T02:02:18.384Z,1.48
2022-11-18T02:04:49.230Z,0.98
2022-11-18T02:07:17.695Z,1.10
2022-11-18T02:09:45.241Z,0.75
2022-11-18T02:12:13.370Z,0.43
2022-11-18T02:14:45.838Z,0.93
2022-11-18T02:17:55.374Z,1.00
2022-11-18T02:20:31.639Z,0.95
2022-11-18T02:23:16.916Z,0.50
2022-11-18T02:26:02.584Z,1.02
2022-11-18T02:28:37.732Z,0.47
2022-11-18T02:31:24.121Z,0.95
2022-11-18T02:34:22.927Z,0.63
2022-11-18T02:37:28.819Z,0.88
2022-11-18T02:40:00.383Z,0.95
2022-11-18T02:42:30.973Z,1.27
2022-11-18T02:45:04.056Z,0.90
2022-11-18T02:47:33.782Z,0.82
2022-11-18T02:50:06.472Z,0.90
2022-11-18T02:52:35.990Z,1.05
2022-11-18T02:55:07.881Z,0.77
2022-11-18T02:57:36.579Z,1.42
2022-11-18T03:00:04.735Z,1.33
2022-11-18T03:02:43.488Z,1.23
2022-11-18T03:05:18.676Z,0.68
2022-11-18T03:07:50.894Z,1.45
2022-11-18T03:10:21.938Z,1.23
2022-11-18T03:13:08.433Z,1.05
2022-11-18T03:15:42.108Z,0.73
2022-11-18T03:18:46.106Z,1.17
2022-11-18T03:21:36.079Z,1.08
2022-11-18T03:24:17.505Z,1.02
2022-11-18T03:26:55.114Z,0.95
2022-11-18T03:29:27.874Z,0.95
2022-11-18T03:32:02.553Z,0.80
2022-11-18T03:34:42.719Z,0.70
2022-11-18T03:37:18.137Z,1.10
2022-11-18T03:39:53.949Z,0.20
2022-11-18T03:42:34.142Z,0.65
2022-11-18T03:45:15.057Z,1.23
2022-11-18T03:47:48.162Z,0.38
2022-11-18T03:50:27.372Z,1.02
2022-11-18T03:52:55.839Z,0.40
2022-11-18T03:55:30.612Z,0.95
2022-11-18T03:58:20.375Z,0.80
2022-11-18T04:00:52.234Z,0.77
2022-11-18T04:03:19.789Z,0.93
2022-11-18T04:05:50.837Z,0.52
2022-11-18T04:08:25.081Z,0.43
2022-11-18T04:11:41.313Z,0.88
2022-11-18T04:14:13.429Z,1.30
2022-11-18T04:16:42.958Z,1.25
2022-11-18T04:19:11.062Z,0.98
2022-11-18T04:24:08.448Z,0.70
2022-11-18T04:26:36.874Z,1.15
2022-11-18T04:29:04.321Z,1.05
2022-11-18T04:31:31.986Z,0.77
2022-11-18T04:33:59.587Z,1.27
2022-11-18T04:36:30.159Z,1.45
2022-11-18T04:38:57.849Z,0.80
2022-11-18T04:41:45.371Z,0.98
2022-11-18T04:44:16.128Z,0.90
2022-11-18T04:46:48.075Z,1.15
2022-11-18T04:49:19.399Z,1.02
2022-11-18T04:51:47.878Z,0.98
2022-11-18T04:54:16.280Z,0.75
2022-11-18T04:56:49.329Z,1.08
2022-11-18T04:59:25.187Z,0.57
2022-11-18T05:01:53.865Z,0.75
2022-11-18T05:04:23.944Z,1.23
2022-11-18T05:07:00.060Z,1.27
2022-11-18T05:09:31.821Z,1.00
2022-11-18T05:12:18.435Z,1.60
2022-11-18T05:14:50.130Z,0.73
2022-11-18T05:17:18.763Z,1.45
2022-11-18T05:19:45.866Z,1.27
2022-11-18T05:22:15.130Z,1.00
2022-11-18T05:24:42.459Z,1.15
2022-11-18T05:27:09.756Z,1.42
2022-11-18T05:29:36.938Z,0.50
2022-11-18T05:32:04.178Z,1.67
2022-11-18T05:34:31.117Z,1.63
2022-11-18T05:36:58.147Z,1.15
2022-11-18T05:39:25.148Z,1.13
2022-11-18T05:42:10.525Z,1.15
2022-11-18T05:44:37.471Z,0.93
2022-11-18T05:47:04.551Z,0.60
2022-11-18T05:49:31.732Z,1.07
2022-11-18T05:51:58.666Z,0.75
2022-11-18T05:54:26.174Z,2.15
2022-11-18T05:56:53.426Z,1.42
2022-11-18T05:59:20.894Z,2.22
2022-11-18T06:02:14.814Z,1.55
2022-11-18T06:04:53.650Z,1.45
2022-11-18T06:07:30.861Z,1.15
2022-11-18T06:10:05.000Z,2.38
2022-11-18T06:12:37.491Z,1.67
2022-11-18T06:15:16.453Z,1.00
2022-11-18T06:18:04.866Z,1.65
2022-11-18T06:20:36.733Z,0.95
2022-11-18T06:23:03.833Z,1.38
2022-11-18T06:25:31.677Z,1.80
2022-11-18T06:28:02.824Z,1.42
2022-11-18T06:30:30.051Z,1.55
2022-11-18T06:32:57.275Z,2.10
2022-11-18T06:35:24.699Z,2.25
2022-11-18T06:37:51.952Z,1.48
2022-11-18T06:40:19.109Z,1.60
2022-11-18T06:43:04.547Z,1.65
2022-11-18T06:45:31.749Z,0.70
2022-11-18T06:48:04.283Z,1.38
2022-11-18T06:50:31.757Z,1.58
2022-11-18T06:53:01.898Z,1.70
2022-11-18T06:55:29.035Z,2.05
2022-11-18T06:57:59.021Z,2.23
2022-11-18T07:00:26.053Z,1.73
2022-11-18T07:02:53.378Z,1.58
2022-11-18T07:05:20.356Z,2.33
2022-11-18T07:07:47.580Z,1.37
2022-11-18T07:10:14.742Z,1.52
2022-11-18T07:12:41.848Z,2.05
2022-11-18T07:15:09.351Z,2.63
2022-11-18T07:17:36.310Z,2.10
2022-11-18T07:20:03.755Z,2.77
2022-11-18T07:22:31.070Z,2.38
2022-11-18T07:24:58.290Z,2.35
2022-11-18T07:27:25.495Z,2.25
2022-11-18T07:29:52.614Z,2.50
2022-11-18T07:32:19.857Z,2.33
2022-11-18T07:34:47.061Z,2.60
2022-11-18T07:37:14.159Z,2.80
2022-11-18T07:39:41.335Z,3.03
2022-11-18T07:42:10.226Z,2.30
2022-11-18T07:44:37.215Z,3.10
2022-11-18T07:47:04.161Z,2.50
2022-11-18T07:49:31.155Z,3.05
2022-11-18T07:51:58.355Z,2.95
2022-11-18T07:54:25.527Z,3.22
2022-11-18T07:56:52.548Z,2.92
2022-11-18T07:59:19.769Z,3.10
2022-11-18T08:01:47.324Z,2.83
2022-11-18T08:04:15.568Z,3.25
2022-11-18T08:06:42.725Z,5.93
2022-11-18T08:09:10.347Z,3.70
2022-11-18T08:11:37.628Z,3.53
2022-11-18T08:14:04.683Z,4.40
2022-11-18T08:16:32.002Z,3.80
2022-11-18T08:19:00.516Z,3.25
2022-11-18T08:21:27.792Z,4.13
2022-11-18T08:23:57.675Z,3.95
2022-11-18T08:26:25.676Z,3.25
2022-11-18T08:28:53.634Z,2.50
2022-11-18T08:31:25.133Z,3.13
2022-11-18T08:34:00.990Z,3.42
2022-11-18T08:36:30.934Z,2.95
2022-11-18T08:39:00.240Z,2.63
2022-11-18T08:41:43.195Z,3.05
2022-11-18T08:44:13.564Z,2.88
2022-11-18T08:46:41.901Z,2.17
2022-11-18T08:49:08.850Z,2.45
2022-11-18T08:51:36.053Z,1.63
2022-11-18T08:54:03.129Z,2.88
2022-11-18T08:56:30.460Z,2.55
2022-11-18T08:58:57.609Z,3.53
2022-11-18T09:01:24.812Z,2.40
2022-11-18T09:03:52.895Z,2.55
2022-11-18T09:06:22.135Z,3.05
2022-11-18T09:08:49.357Z,2.20
2022-11-18T09:11:27.640Z,2.35
2022-11-18T09:16:43.809Z,2.05
2022-11-18T09:19:45.002Z,2.05
2022-11-18T09:21:57.691Z,1.05
2022-11-18T09:24:24.891Z,1.30
2022-11-18T09:26:53.849Z,0.85
2022-11-18T09:29:25.689Z,0.75
2022-11-18T09:31:54.759Z,0.90
2022-11-18T09:34:23.041Z,0.88
2022-11-18T09:36:50.351Z,0.25
2022-11-18T09:39:17.578Z,0.20
2022-11-18T09:42:00.976Z,0.45
2022-11-18T09:44:45.253Z,0.10
2022-11-18T09:47:25.937Z,0.40
2022-11-18T09:49:56.061Z,0.30
2022-11-18T09:52:36.093Z,0.52
2022-11-18T09:55:12.266Z,1.05
2022-11-18T09:58:00.670Z,0.30
2022-11-18T10:00:30.679Z,0.50
2022-11-18T10:03:08.602Z,0.45
2022-11-18T10:05:56.271Z,0.57
2022-11-18T10:08:34.017Z,0.17
2022-11-18T10:11:08.073Z,0.45
2022-11-18T10:13:41.681Z,0.20
2022-11-18T10:16:17.696Z,0.40
2022-11-18T10:19:17.880Z,0.20
2022-11-18T10:22:11.744Z,0.35
2022-11-18T10:24:49.108Z,0.38
2022-11-18T10:27:17.415Z,0.30
2022-11-18T10:29:46.833Z,0.70
2022-11-18T10:32:16.154Z,0.20
2022-11-18T10:34:55.691Z,0.70
2022-11-18T10:37:52.446Z,0.47
2022-11-18T10:40:25.963Z,0.60
2022-11-18T10:42:53.058Z,0.50
2022-11-18T10:45:23.314Z,0.30
2022-11-18T10:48:09.930Z,0.22
2022-11-18T10:50:42.526Z,0.20
2022-11-18T10:53:33.018Z,0.35
2022-11-18T10:56:05.896Z,0.25
2022-11-18T10:58:40.266Z,0.50
2022-11-18T11:01:07.689Z,0.40
2022-11-18T11:03:38.153Z,0.38
2022-11-18T11:06:34.355Z,0.50
2022-11-18T11:09:02.971Z,0.57
2022-11-18T11:17:17.294Z,0.40
2022-11-18T11:20:28.172Z,0.52
2022-11-18T11:23:32.358Z,0.30
2022-11-18T11:33:19.610Z,0.50
2022-11-18T11:39:04.580Z,0.77
2022-11-18T11:41:24.404Z,0.40
2022-11-18T12:25:49.720Z,0.60
2022-11-18T12:28:45.383Z,0.40
2022-11-18T12:31:18.417Z,0.60
2022-11-18T12:34:02.299Z,0.65
2022-11-18T12:36:31.001Z,0.50
2022-11-18T12:38:59.250Z,0.45
2022-11-18T12:42:04.720Z,0.82
2022-11-18T12:44:31.657Z,0.30
2022-11-18T12:47:02.936Z,0.30
2022-11-18T12:49:29.934Z,0.63
2022-11-18T12:51:59.513Z,1.10
2022-11-18T12:54:37.091Z,0.70
2022-11-18T13:02:27.989Z,1.00
2022-11-18T13:05:28.071Z,0.68
2022-11-18T13:08:16.178Z,0.82
2022-11-18T13:11:16.815Z,1.13
2022-11-18T13:13:45.598Z,0.50
2022-11-18T13:16:42.229Z,0.98
2022-11-18T13:19:10.486Z,0.63
2022-11-18T13:21:56.401Z,0.85
2022-11-18T13:24:23.710Z,1.02
2022-11-18T13:26:59.388Z,1.50
2022-11-18T13:29:54.106Z,1.38
2022-11-18T13:32:27.607Z,0.70
2022-11-18T13:35:05.593Z,0.85
2022-11-18T13:37:34.525Z,0.93
2022-11-18T13:40:01.649Z,0.73
2022-11-18T13:42:30.633Z,1.08
2022-11-18T13:44:59.745Z,0.85
2022-11-18T13:47:41.788Z,1.02
2022-11-18T13:50:11.432Z,1.27
2022-11-18T13:52:56.403Z,1.45
2022-11-18T13:55:28.070Z,0.95
2022-11-18T13:58:24.236Z,0.90
2022-11-18T14:01:03.925Z,1.13
2022-11-18T14:03:51.172Z,1.10
2022-11-18T14:06:38.992Z,0.70
2022-11-18T14:09:15.023Z,0.80
2022-11-18T14:11:44.434Z,0.88
2022-11-18T14:14:14.411Z,1.02
2022-11-18T14:16:42.645Z,0.77
2022-11-18T14:19:31.050Z,1.00
2022-11-18T14:22:15.141Z,1.23
2022-11-18T14:24:43.527Z,0.80
2022-11-18T14:27:39.513Z,0.77
2022-11-18T14:30:30.885Z,0.70
2022-11-18T14:33:12.205Z,1.10
2022-11-18T14:35:41.241Z,0.63
2022-11-18T14:41:10.944Z,1.25
2022-11-18T14:43:38.886Z,1.13
2022-11-18T14:46:14.740Z,1.38
2022-11-18T14:48:42.476Z,1.17
2022-11-18T14:51:14.847Z,0.73
2022-11-18T14:53:42.961Z,0.80
2022-11-18T14:56:24.587Z,0.50
2022-11-18T14:58:51.774Z,1.08
2022-11-18T15:01:19.312Z,0.57
2022-11-18T15:03:46.515Z,1.42
2022-11-18T15:06:18.762Z,1.40
2022-11-18T15:08:48.109Z,0.68
2022-11-18T15:11:16.273Z,1.75
2022-11-18T15:13:43.357Z,1.17
2022-11-18T15:16:18.764Z,0.75
2022-11-18T15:18:48.681Z,2.42
2022-11-18T15:21:16.763Z,1.60
2022-11-18T15:23:44.507Z,1.55
2022-11-18T15:26:25.431Z,1.20
2022-11-18T15:28:54.773Z,1.23
2022-11-18T15:31:24.537Z,1.52
2022-11-18T15:33:52.726Z,1.58
2022-11-18T15:36:24.969Z,1.30
2022-11-18T15:38:53.734Z,1.17
2022-11-18T15:41:26.754Z,0.90
2022-11-18T15:43:55.789Z,0.93
2022-11-18T15:46:24.918Z,1.08
2022-11-18T15:48:53.733Z,1.00
2022-11-18T15:51:21.583Z,0.80
2022-11-18T15:56:21.851Z,1.02
2022-11-18T15:59:02.314Z,1.45
2022-11-18T16:01:34.972Z,1.00
2022-11-18T16:04:02.913Z,1.25
2022-11-18T16:09:00.013Z,1.95
2022-11-18T16:11:47.347Z,1.30
2022-11-18T16:14:17.415Z,1.02
2022-11-18T16:16:46.850Z,0.88
2022-11-18T16:19:17.213Z,1.52
2022-11-18T16:21:47.828Z,2.00
2022-11-18T16:24:21.742Z,1.58
2022-11-18T16:26:50.211Z,1.65
2022-11-18T16:29:18.963Z,1.60
2022-11-18T16:31:51.696Z,0.98
2022-11-18T16:34:28.000Z,1.25
2022-11-18T16:37:02.529Z,1.33
2022-11-18T16:39:30.575Z,1.65
2022-11-18T16:42:07.275Z,1.33
2022-11-18T16:44:37.259Z,1.02
2022-11-18T16:47:13.894Z,1.42
2022-11-18T16:49:42.916Z,0.75
2022-11-18T16:52:10.433Z,0.90
2022-11-18T16:54:44.440Z,1.30
2022-11-18T16:57:13.197Z,1.27
2022-11-18T17:02:07.911Z,1.23
2022-11-18T17:04:37.526Z,1.70
2022-11-18T17:07:05.495Z,1.58
2022-11-18T17:09:33.150Z,1.15
2022-11-18T17:12:01.659Z,1.10
2022-11-18T17:14:31.944Z,0.88
2022-11-18T17:17:25.250Z,1.30
2022-11-18T17:19:55.353Z,1.45
2022-11-18T17:22:24.176Z,1.75
2022-11-18T17:24:51.628Z,1.35
2022-11-18T17:27:19.448Z,1.65
2022-11-18T17:32:14.242Z,1.63
2022-11-18T17:37:09.710Z,1.13
2022-11-18T17:39:36.882Z,1.40
2022-11-18T17:42:18.018Z,1.35
2022-11-18T17:44:48.883Z,1.35
2022-11-18T17:47:17.416Z,1.02
2022-11-18T17:49:45.291Z,1.42
2022-11-18T17:52:12.525Z,1.23
2022-11-18T17:54:39.540Z,1.70
2022-11-18T17:57:06.472Z,1.65
2022-11-18T17:59:33.563Z,1.80
2022-11-18T18:02:00.601Z,1.30
2022-11-18T18:04:27.939Z,1.50
2022-11-18T18:06:55.436Z,1.40
2022-11-18T18:09:30.581Z,2.47
2022-11-18T18:11:59.905Z,2.38
2022-11-18T18:14:27.019Z,1.67
2022-11-18T18:16:54.548Z,1.52
2022-11-18T18:19:23.785Z,1.77
2022-11-18T18:21:50.836Z,1.42
2022-11-18T18:24:20.325Z,1.65
2022-11-18T18:26:47.870Z,1.85
2022-11-18T18:29:15.042Z,1.98
2022-11-18T18:31:42.172Z,3.40
2022-11-18T18:34:09.192Z,3.80
2022-11-18T18:36:36.264Z,2.97
2022-11-18T18:39:03.713Z,4.60
2022-11-18T18:41:31.321Z,3.97
2022-11-18T18:43:58.449Z,5.50
2022-11-18T18:46:30.347Z,3.10
2022-11-18T18:49:15.145Z,7.53
2022-11-18T18:51:44.699Z,8.40
2022-11-18T18:54:13.761Z,4.22
2022-11-18T18:56:41.370Z,3.15
2022-11-18T18:59:09.767Z,2.83
2022-11-18T19:01:39.459Z,2.47
2022-11-18T19:04:07.893Z,3.05
2022-11-18T19:06:58.996Z,2.15
2022-11-18T19:09:25.120Z,2.00
2022-11-18T19:12:11.899Z,2.88
2022-11-18T19:14:39.219Z,2.00
2022-11-18T19:17:10.716Z,1.98
2022-11-18T19:19:58.502Z,1.63
2022-11-18T19:22:26.057Z,1.70
2022-11-18T19:24:53.961Z,1.73
2022-11-18T19:27:22.154Z,2.00
2022-11-18T19:29:49.439Z,1.98
2022-11-18T19:32:17.272Z,1.80
2022-11-18T19:34:44.536Z,2.53
2022-11-18T19:37:11.662Z,4.35
2022-11-18T19:39:38.901Z,4.50
2022-11-18T19:42:06.127Z,2.38
2022-11-18T19:44:33.327Z,4.07
2022-11-18T19:47:00.362Z,3.22
2022-11-18T19:49:27.573Z,3.20
2022-11-18T19:51:54.721Z,2.50
2022-11-18T19:54:22.273Z,2.00
2022-11-18T19:56:49.630Z,3.20
2022-11-18T19:59:17.436Z,2.92
2022-11-18T20:01:45.738Z,2.75
2022-11-18T20:04:13.006Z,2.00
2022-11-18T20:06:40.955Z,2.08
2022-11-18T20:09:10.441Z,2.60
2022-11-18T20:11:39.350Z,2.28
2022-11-18T20:14:09.061Z,1.92
2022-11-18T20:16:38.554Z,1.98
2022-11-18T20:19:17.849Z,2.17
2022-11-18T20:21:48.822Z,2.13
2022-11-18T20:24:19.576Z,2.85
2022-11-18T20:26:47.699Z,1.42
2022-11-18T20:29:16.215Z,2.50
2022-11-18T20:31:44.412Z,5.03
2022-11-18T20:36:43.113Z,3.83
2022-11-18T20:39:22.783Z,3.28
2022-11-18T20:42:10.061Z,2.47
2022-11-18T20:44:37.686Z,1.98
2022-11-18T20:47:05.799Z,1.92
2022-11-18T20:49:34.098Z,2.15
2022-11-18T20:52:02.504Z,1.92
2022-11-18T20:54:30.683Z,1.60
2022-11-18T20:57:00.229Z,1.60
2022-11-18T20:59:28.727Z,1.83
2022-11-18T21:02:06.586Z,1.92
2022-11-18T21:04:34.616Z,2.35
2022-11-18T21:07:02.049Z,1.90
2022-11-18T21:09:33.418Z,1.40
2022-11-18T21:12:01.281Z,1.60
2022-11-18T21:14:28.740Z,2.17
2022-11-18T21:17:00.891Z,2.30
2022-11-18T21:19:29.531Z,2.05
2022-11-18T21:21:57.613Z,1.88
2022-11-18T21:24:29.247Z,1.65
2022-11-18T21:26:58.084Z,2.22
2022-11-18T21:29:28.187Z,2.17
2022-11-18T21:31:55.680Z,1.65
2022-11-18T21:34:23.364Z,1.60
2022-11-18T21:36:54.639Z,1.20
2022-11-18T21:39:25.835Z,2.45
2022-11-18T21:41:56.724Z,2.17
2022-11-18T21:44:25.935Z,1.52
2022-11-18T21:46:53.712Z,1.80
2022-11-18T21:49:21.246Z,1.92
2022-11-18T21:51:49.034Z,1.45
2022-11-18T21:54:18.531Z,1.83
2022-11-18T21:56:45.996Z,1.20
2022-11-18T21:59:13.388Z,2.15
2022-11-18T22:01:40.749Z,1.30
2022-11-18T22:04:08.101Z,1.67
2022-11-18T22:06:36.329Z,1.17
2022-11-18T22:09:04.889Z,1.55
2022-11-18T22:11:32.450Z,1.50
2022-11-18T22:13:59.928Z,1.63
2022-11-18T22:16:28.033Z,1.42
2022-11-18T22:19:00.343Z,1.77
2022-11-18T22:21:31.079Z,1.33
2022-11-18T22:24:00.485Z,1.92
2022-11-18T22:26:29.113Z,0.82
2022-11-18T22:28:58.096Z,1.55
2022-11-18T22:31:26.546Z,1.80
2022-11-18T22:33:54.962Z,1.67
2022-11-18T22:36:24.715Z,2.42
2022-11-18T22:38:52.006Z,1.38
2022-11-18T22:41:39.260Z,1.85
2022-11-18T22:44:08.664Z,1.75
2022-11-18T22:46:37.463Z,1.40
2022-11-18T22:49:05.803Z,1.90
2022-11-18T22:51:34.171Z,1.17
2022-11-18T22:54:37.795Z,1.38
2022-11-18T22:56:48.661Z,1.73
2022-11-18T22:59:16.540Z,1.88
2022-11-18T23:01:44.587Z,1.50
2022-11-18T23:04:11.859Z,2.35
2022-11-18T23:06:39.695Z,1.85
2022-11-18T23:09:07.007Z,1.17
2022-11-18T23:11:52.564Z,1.33
2022-11-18T23:14:19.726Z,1.10
2022-11-18T23:16:46.977Z,1.03
2022-11-18T23:19:16.475Z,2.03
2022-11-18T23:21:44.730Z,0.90
2022-11-18T23:24:13.636Z,0.80
2022-11-18T23:26:41.453Z,0.77
2022-11-18T23:31:36.474Z,1.63
2022-11-18T23:34:03.617Z,0.85
2022-11-18T23:36:30.750Z,0.88
2022-11-18T23:38:58.183Z,0.88
2022-11-18T23:41:25.438Z,1.75
2022-11-18T23:43:53.764Z,0.57
2022-11-18T23:46:21.307Z,0.80
2022-11-18T23:48:48.760Z,1.27
2022-11-18T23:51:23.658Z,1.25
2022-11-18T23:53:56.943Z,1.23
2022-11-18T23:56:26.683Z,1.70
2022-11-18T23:58:55.858Z,1.10
